Aérodrome :
LOGIN :

S'inscrire | Disclaimer

   EN    FR    IT 

 










Légende :    VFR   VFR Marginal   IFR   IFR Intensif   IFR Très Intensif
Visi : 
Plafond : 
>= 8 km
>= 3000ft
5 à 8 km
1000 à 3000 ft
1500m à 5 km
500 à 1000 ft
800 à 1500m
200 à 500 ft
< 800m
< 200 ft
Symboles :   Orages  Brouillard  Fortes neiges  Fortes précipitations  Vent > 20 kt
SIGMETs :   Divers  Orages  Givrage  Turbulence  Onde Orograph.  Cendres Volcan.






- Altitude de l'aérodrome : 656 ft
- Code IATA : CMN


GMMN - Casablanca Mohammed V

DERNIER METAR :
  • 021130Z VRB04KT 9999 FEW030 SCT200 28/14 Q1015 NOSIG

METARs EXPIRÉS :
  • 021100Z VRB02KT 9999 FEW030 SCT200 26/14 Q1016 NOSIG
  • 021030Z 29003KT 180V330 CAVOK 26/14 Q1016 NOSIG
  • 021000Z VRB02KT CAVOK 25/14 Q1016 NOSIG
  • 020930Z 36003KT 290V070 9999 FEW030 SCT200 24/13 Q1016 NOSIG
  • 020900Z 06003KT 010V110 9999 FEW030 SCT200 23/14 Q1016 NOSIG

TAF TAF GMMN
Valide du 02 à 12h jusqu'au 03 à 18h UTC


021100Z 0212/0318 34011KT FEW030 SCT200
BECMG 0218/0221 02005KT 9999 SCT016
PROB40 0303/0308 4000 BR BKN008
BECMG 0313/0315 34012KT



MET'MAP, la Météo Aéronautique d'un coup d'oeil ! - Copyright ORBIFLY Décembre 2007 - Disclaimer

ORBIFLY MET'MAP TEAM :

Programmation & Développement : Alexandra Zaïnal
Sur une idée originale de : Baudouin d'Aumeries
Assistance à la programmation : Marc-Olivier Méhu
Soutien technique & logistique : Manuel Goepfert

Contact : metmap@orbifly.com




SOURCES & CREDITS :

   NOAA